PWSweather.com
Personal Weather Stations
Station Observations
COONRAPIDS
Minneapolis, MN 55433

Minneapolis, MN 55433

Lat: 45.187721, Lon: -93.36828

Elevation: 898

Station Type: Davis Vantage Pro 2

High Low Average
Temperature 62.3°F16.8°C 43.7°F6.5°C 51.4°F10.8°C
Dew Point 43.5°F6.4°C 32.4°F0.2°C 38.8°F3.8°C
Winds 5.8 mph 9.3 kmh Calm Calm 2.0 mph E3.2 kmh E
Wind Gusts 12.7 mph20.4 kmh -- 3.0 mph4.8 kmh
Humidity 88% 36% 65%
Pressure 30.11 in1019.6 mb 29.69 in1005.4 mb -
Precipitation 0.53 in13.5 mm - -
Hour Temp Dew Point Humidity Winds Wind Gusts Pressure Precip Precip Rate Daily Precip Total
12:00 AM 48.0°F8.9°C 39.4°F4.1°C 72% Calm Calm -- 30.10 in1019.3 mb - 0.00 in0.0 mm 0.00 in0.0 mm
12:10 AM 47.7°F8.7°C 39.5°F4.2°C 73% Calm Calm -- 30.10 in1019.3 mb - 0.00 in0.0 mm 0.00 in0.0 mm
12:20 AM 47.4°F8.6°C 39.5°F4.2°C 74% Calm Calm -- 30.11 in1019.6 mb - 0.00 in0.0 mm 0.00 in0.0 mm
12:30 AM 47.0°F8.3°C 39.5°F4.2°C 75% Calm Calm -- 30.11 in1019.6 mb - 0.00 in0.0 mm 0.00 in0.0 mm
12:40 AM 46.8°F8.2°C 39.6°F4.2°C 76% Calm Calm -- 30.11 in1019.6 mb - 0.00 in0.0 mm 0.00 in0.0 mm
12:50 AM 46.4°F8.0°C 39.2°F4.0°C 76% Calm Calm -- 30.11 in1019.6 mb - 0.00 in0.0 mm 0.00 in0.0 mm
01:00 AM 46.1°F7.8°C 39.3°F4.1°C 77% Calm Calm -- 30.10 in1019.3 mb - 0.00 in0.0 mm 0.00 in0.0 mm
01:10 AM 45.7°F7.6°C 39.3°F4.1°C 78% Calm Calm -- 30.10 in1019.3 mb - 0.00 in0.0 mm 0.00 in0.0 mm
01:20 AM 45.4°F7.4°C 38.9°F3.8°C 78% Calm Calm -- 30.11 in1019.6 mb - 0.00 in0.0 mm 0.00 in0.0 mm
01:30 AM 45.1°F7.3°C 38.9°F3.8°C 79% Calm Calm -- 30.11 in1019.6 mb - 0.00 in0.0 mm 0.00 in0.0 mm
01:40 AM 44.8°F7.1°C 39.0°F3.9°C 80% Calm Calm -- 30.10 in1019.3 mb - 0.00 in0.0 mm 0.00 in0.0 mm
01:50 AM 44.6°F7.0°C 38.8°F3.8°C 80% Calm Calm -- 30.10 in1019.3 mb - 0.00 in0.0 mm 0.00 in0.0 mm
02:00 AM 44.5°F6.9°C 39.0°F3.9°C 81% Calm Calm -- 30.10 in1019.3 mb - 0.00 in0.0 mm 0.00 in0.0 mm
02:10 AM 44.3°F6.8°C 38.9°F3.8°C 81% Calm Calm -- 30.09 in1019.0 mb - 0.00 in0.0 mm 0.00 in0.0 mm
02:20 AM 44.2°F6.8°C 38.7°F3.7°C 81% Calm Calm -- 30.09 in1019.0 mb - 0.00 in0.0 mm 0.00 in0.0 mm
02:30 AM 44.0°F6.7°C 38.5°F3.6°C 81% Calm Calm -- 30.09 in1019.0 mb - 0.00 in0.0 mm 0.00 in0.0 mm
02:40 AM 43.7°F6.5°C 38.6°F3.7°C 82% Calm Calm -- 30.09 in1019.0 mb - 0.00 in0.0 mm 0.00 in0.0 mm
02:50 AM 43.9°F6.6°C 38.8°F3.8°C 82% Calm Calm -- 30.09 in1019.0 mb - 0.00 in0.0 mm 0.00 in0.0 mm
03:00 AM 44.2°F6.8°C 39.1°F3.9°C 82% Calm Calm -- 30.08 in1018.6 mb - 0.00 in0.0 mm 0.00 in0.0 mm
03:10 AM 44.9°F7.2°C 39.5°F4.2°C 81% Calm Calm -- 30.08 in1018.6 mb - 0.00 in0.0 mm 0.00 in0.0 mm
03:20 AM 45.8°F7.7°C 39.4°F4.1°C 78% Calm Calm -- 30.07 in1018.3 mb - 0.00 in0.0 mm 0.00 in0.0 mm
03:30 AM 46.3°F7.9°C 39.1°F3.9°C 76% Calm Calm -- 30.07 in1018.3 mb - 0.00 in0.0 mm 0.00 in0.0 mm
03:40 AM 46.1°F7.8°C 39.0°F3.9°C 76% Calm Calm -- 30.08 in1018.6 mb - 0.00 in0.0 mm 0.00 in0.0 mm
03:50 AM 45.7°F7.6°C 38.6°F3.7°C 76% Calm Calm -- 30.09 in1019.0 mb - 0.00 in0.0 mm 0.00 in0.0 mm
04:00 AM 45.2°F7.3°C 38.4°F3.6°C 77% Calm Calm -- 30.09 in1019.0 mb - 0.00 in0.0 mm 0.00 in0.0 mm
04:10 AM 44.9°F7.2°C 38.5°F3.6°C 78% Calm Calm -- 30.08 in1018.6 mb - 0.00 in0.0 mm 0.00 in0.0 mm
04:20 AM 44.9°F7.2°C 38.5°F3.6°C 78% Calm Calm -- 30.07 in1018.3 mb - 0.00 in0.0 mm 0.00 in0.0 mm
04:30 AM 45.0°F7.2°C 38.6°F3.7°C 78% Calm Calm -- 30.07 in1018.3 mb - 0.00 in0.0 mm 0.00 in0.0 mm
04:40 AM 45.1°F7.3°C 38.3°F3.5°C 77% Calm Calm -- 30.06 in1017.9 mb - 0.00 in0.0 mm 0.00 in0.0 mm
04:50 AM 44.9°F7.2°C 38.1°F3.4°C 77% Calm Calm -- 30.08 in1018.6 mb - 0.00 in0.0 mm 0.00 in0.0 mm
05:00 AM 44.7°F7.1°C 37.9°F3.3°C 77% Calm Calm -- 30.09 in1019.0 mb - 0.00 in0.0 mm 0.00 in0.0 mm
05:10 AM 44.7°F7.1°C 37.9°F3.3°C 77% Calm Calm -- 30.07 in1018.3 mb - 0.00 in0.0 mm 0.00 in0.0 mm
05:20 AM 44.8°F7.1°C 37.7°F3.2°C 76% Calm Calm 1.2 mph1.9 kmh 30.06 in1017.9 mb - 0.00 in0.0 mm 0.00 in0.0 mm
05:30 AM 45.1°F7.3°C 37.6°F3.1°C 75% Calm Calm -- 30.07 in1018.3 mb - 0.00 in0.0 mm 0.00 in0.0 mm
05:40 AM 45.5°F7.5°C 37.4°F3.0°C 73% Calm Calm -- 30.07 in1018.3 mb - 0.00 in0.0 mm 0.00 in0.0 mm
05:50 AM 46.0°F7.8°C 37.1°F2.8°C 71% Calm Calm -- 30.07 in1018.3 mb - 0.00 in0.0 mm 0.00 in0.0 mm
06:00 AM 46.2°F7.9°C 37.3°F2.9°C 71% Calm Calm -- 30.07 in1018.3 mb - 0.00 in0.0 mm 0.00 in0.0 mm
06:10 AM 46.3°F7.9°C 37.0°F2.8°C 70% Calm Calm -- 30.07 in1018.3 mb - 0.00 in0.0 mm 0.00 in0.0 mm
06:20 AM 46.4°F8.0°C 37.1°F2.8°C 70% Calm Calm -- 30.08 in1018.6 mb - 0.00 in0.0 mm 0.00 in0.0 mm
06:30 AM 46.5°F8.1°C 37.2°F2.9°C 70% Calm Calm -- 30.08 in1018.6 mb - 0.00 in0.0 mm 0.00 in0.0 mm
06:40 AM 46.5°F8.1°C 37.6°F3.1°C 71% Calm Calm -- 30.08 in1018.6 mb - 0.00 in0.0 mm 0.00 in0.0 mm
06:50 AM 46.4°F8.0°C 37.5°F3.1°C 71% Calm Calm -- 30.08 in1018.6 mb - 0.00 in0.0 mm 0.00 in0.0 mm
07:00 AM 46.5°F8.1°C 37.6°F3.1°C 71% Calm Calm -- 30.08 in1018.6 mb - 0.00 in0.0 mm 0.00 in0.0 mm
07:10 AM 46.9°F8.3°C 37.7°F3.2°C 70% Calm Calm -- 30.08 in1018.6 mb - 0.00 in0.0 mm 0.00 in0.0 mm
07:20 AM 47.9°F8.8°C 37.8°F3.2°C 68% Calm Calm -- 30.09 in1019.0 mb - 0.00 in0.0 mm 0.00 in0.0 mm
07:30 AM 48.7°F9.3°C 37.8°F3.2°C 66% Calm Calm -- 30.09 in1019.0 mb - 0.00 in0.0 mm 0.00 in0.0 mm
07:40 AM 49.4°F9.7°C 38.1°F3.4°C 65% Calm Calm -- 30.09 in1019.0 mb - 0.00 in0.0 mm 0.00 in0.0 mm
07:50 AM 49.7°F9.8°C 37.6°F3.1°C 63% Calm Calm -- 30.08 in1018.6 mb - 0.00 in0.0 mm 0.00 in0.0 mm
08:00 AM 50.0°F10.0°C 38.3°F3.5°C 64% Calm Calm -- 30.07 in1018.3 mb - 0.00 in0.0 mm 0.00 in0.0 mm
08:10 AM 50.3°F10.2°C 37.8°F3.2°C 62% Calm Calm -- 30.06 in1017.9 mb - 0.00 in0.0 mm 0.00 in0.0 mm
08:20 AM 50.6°F10.3°C 38.1°F3.4°C 62% Calm Calm -- 30.07 in1018.3 mb - 0.00 in0.0 mm 0.00 in0.0 mm
08:30 AM 51.1°F10.6°C 38.5°F3.6°C 62% Calm Calm -- 30.08 in1018.6 mb - 0.00 in0.0 mm 0.00 in0.0 mm
08:40 AM 51.5°F10.8°C 38.1°F3.4°C 60% Calm Calm -- 30.08 in1018.6 mb - 0.00 in0.0 mm 0.00 in0.0 mm
08:50 AM 52.0°F11.1°C 39.0°F3.9°C 61% Calm Calm -- 30.08 in1018.6 mb - 0.00 in0.0 mm 0.00 in0.0 mm
09:00 AM 52.6°F11.4°C 38.3°F3.5°C 58% Calm Calm -- 30.08 in1018.6 mb - 0.00 in0.0 mm 0.00 in0.0 mm
09:10 AM 53.4°F11.9°C 38.5°F3.6°C 57% Calm Calm -- 30.07 in1018.3 mb - 0.00 in0.0 mm 0.00 in0.0 mm
09:20 AM 54.2°F12.3°C 37.9°F3.3°C 54% 1.2 mph E1.9 kmh E 1.2 mph1.9 kmh 30.07 in1018.3 mb - 0.00 in0.0 mm 0.00 in0.0 mm
09:30 AM 55.0°F12.8°C 38.2°F3.4°C 53% Calm Calm -- 30.06 in1017.9 mb - 0.00 in0.0 mm 0.00 in0.0 mm
09:40 AM 55.5°F13.1°C 38.7°F3.7°C 53% Calm Calm 1.2 mph1.9 kmh 30.06 in1017.9 mb - 0.00 in0.0 mm 0.00 in0.0 mm
09:50 AM 55.8°F13.2°C 37.9°F3.3°C 51% 1.2 mph ENE1.9 kmh ENE 1.2 mph1.9 kmh 30.06 in1017.9 mb - 0.00 in0.0 mm 0.00 in0.0 mm
10:00 AM 55.4°F13.0°C 38.1°F3.4°C 52% Calm Calm -- 30.06 in1017.9 mb - 0.00 in0.0 mm 0.00 in0.0 mm
10:10 AM 55.7°F13.2°C 38.3°F3.5°C 52% Calm Calm -- 30.06 in1017.9 mb - 0.00 in0.0 mm 0.00 in0.0 mm
10:20 AM 55.9°F13.3°C 39.0°F3.9°C 53% 1.2 mph ESE1.9 kmh ESE 2.3 mph3.7 kmh 30.06 in1017.9 mb - 0.00 in0.0 mm 0.00 in0.0 mm
10:30 AM 56.4°F13.6°C 38.5°F3.6°C 51% Calm Calm -- 30.06 in1017.9 mb - 0.00 in0.0 mm 0.00 in0.0 mm
10:40 AM 56.6°F13.7°C 38.2°F3.4°C 50% 1.2 mph ESE1.9 kmh ESE 3.5 mph5.6 kmh 30.06 in1017.9 mb - 0.00 in0.0 mm 0.00 in0.0 mm
10:50 AM 56.9°F13.8°C 38.4°F3.6°C 50% 1.2 mph E1.9 kmh E 5.8 mph9.3 kmh 30.05 in1017.6 mb - 0.00 in0.0 mm 0.00 in0.0 mm
11:00 AM 57.1°F13.9°C 38.6°F3.7°C 50% 2.3 mph ESE3.7 kmh ESE 6.9 mph11.1 kmh 30.05 in1017.6 mb - 0.00 in0.0 mm 0.00 in0.0 mm
11:10 AM 57.6°F14.2°C 38.6°F3.7°C 49% 1.2 mph E1.9 kmh E 5.8 mph9.3 kmh 30.04 in1017.3 mb - 0.00 in0.0 mm 0.00 in0.0 mm
11:20 AM 57.8°F14.3°C 38.8°F3.8°C 49% Calm Calm -- 30.02 in1016.6 mb - 0.00 in0.0 mm 0.00 in0.0 mm
11:30 AM 58.8°F14.9°C 38.6°F3.7°C 47% Calm Calm -- 30.03 in1016.9 mb - 0.00 in0.0 mm 0.00 in0.0 mm
11:40 AM 58.6°F14.8°C 37.9°F3.3°C 46% 2.3 mph E3.7 kmh E 8.1 mph13.0 kmh 30.03 in1016.9 mb - 0.00 in0.0 mm 0.00 in0.0 mm
11:50 AM 57.8°F14.3°C 37.7°F3.2°C 47% Calm Calm 1.2 mph1.9 kmh 30.04 in1017.3 mb - 0.00 in0.0 mm 0.00 in0.0 mm
12:00 PM 57.9°F14.4°C 38.3°F3.5°C 48% 2.3 mph E3.7 kmh E 3.5 mph5.6 kmh 30.03 in1016.9 mb - 0.00 in0.0 mm 0.00 in0.0 mm
12:10 PM 57.8°F14.3°C 38.2°F3.4°C 48% 3.5 mph ESE5.6 kmh ESE 6.9 mph11.1 kmh 30.03 in1016.9 mb - 0.00 in0.0 mm 0.00 in0.0 mm
12:20 PM 57.8°F14.3°C 38.2°F3.4°C 48% 3.5 mph E5.6 kmh E 6.9 mph11.1 kmh 30.02 in1016.6 mb - 0.00 in0.0 mm 0.00 in0.0 mm
12:30 PM 57.9°F14.4°C 37.8°F3.2°C 47% 4.6 mph ENE7.4 kmh ENE 5.8 mph9.3 kmh 30.01 in1016.3 mb - 0.00 in0.0 mm 0.00 in0.0 mm
12:40 PM 57.9°F14.4°C 37.3°F2.9°C 46% 2.3 mph E3.7 kmh E 3.5 mph5.6 kmh 30.01 in1016.3 mb - 0.00 in0.0 mm 0.00 in0.0 mm
12:50 PM 59.3°F15.2°C 38.0°F3.3°C 45% 2.3 mph ENE3.7 kmh ENE 4.6 mph7.4 kmh 30.01 in1016.3 mb - 0.00 in0.0 mm 0.00 in0.0 mm
01:00 PM 60.3°F15.7°C 37.1°F2.8°C 42% 3.5 mph E5.6 kmh E 3.5 mph5.6 kmh 30.00 in1015.9 mb - 0.00 in0.0 mm 0.00 in0.0 mm
01:10 PM 60.3°F15.7°C 36.5°F2.5°C 41% 3.5 mph E5.6 kmh E 8.1 mph13.0 kmh 30.00 in1015.9 mb - 0.00 in0.0 mm 0.00 in0.0 mm
01:20 PM 60.3°F15.7°C 35.9°F2.2°C 40% 3.5 mph E5.6 kmh E 6.9 mph11.1 kmh 30.00 in1015.9 mb - 0.00 in0.0 mm 0.00 in0.0 mm
01:30 PM 60.5°F15.8°C 36.0°F2.2°C 40% 4.6 mph ESE7.4 kmh ESE 9.2 mph14.8 kmh 30.01 in1016.3 mb - 0.00 in0.0 mm 0.00 in0.0 mm
01:40 PM 60.5°F15.8°C 36.0°F2.2°C 40% 4.6 mph E7.4 kmh E 5.8 mph9.3 kmh 30.00 in1015.9 mb - 0.00 in0.0 mm 0.00 in0.0 mm
01:50 PM 60.7°F15.9°C 36.3°F2.4°C 40% 2.3 mph E3.7 kmh E 3.5 mph5.6 kmh 29.99 in1015.6 mb - 0.00 in0.0 mm 0.00 in0.0 mm
02:00 PM 61.1°F16.2°C 34.6°F1.4°C 37% 4.6 mph E7.4 kmh E 4.6 mph7.4 kmh 29.98 in1015.2 mb - 0.00 in0.0 mm 0.00 in0.0 mm
02:10 PM 61.1°F16.2°C 34.6°F1.4°C 37% 2.3 mph E3.7 kmh E 3.5 mph5.6 kmh 29.98 in1015.2 mb - 0.00 in0.0 mm 0.00 in0.0 mm
02:20 PM 61.1°F16.2°C 34.6°F1.4°C 37% 3.5 mph E5.6 kmh E 4.6 mph7.4 kmh 29.97 in1014.9 mb - 0.00 in0.0 mm 0.00 in0.0 mm
02:30 PM 62.2°F16.8°C 36.3°F2.4°C 38% 3.5 mph E5.6 kmh E 8.1 mph13.0 kmh 29.96 in1014.6 mb - 0.00 in0.0 mm 0.00 in0.0 mm
02:40 PM 61.9°F16.6°C 34.6°F1.4°C 36% 4.6 mph E7.4 kmh E 8.1 mph13.0 kmh 29.95 in1014.2 mb - 0.00 in0.0 mm 0.00 in0.0 mm
02:50 PM 62.3°F16.8°C 37.0°F2.8°C 39% 2.3 mph E3.7 kmh E 6.9 mph11.1 kmh 29.95 in1014.2 mb - 0.00 in0.0 mm 0.00 in0.0 mm
03:00 PM 61.8°F16.6°C 35.2°F1.8°C 37% 4.6 mph E7.4 kmh E 6.9 mph11.1 kmh 29.94 in1013.9 mb - 0.00 in0.0 mm 0.00 in0.0 mm
03:10 PM 61.5°F16.4°C 35.0°F1.7°C 37% 4.6 mph E7.4 kmh E 10.4 mph16.7 kmh 29.94 in1013.9 mb - 0.00 in0.0 mm 0.00 in0.0 mm
03:20 PM 61.1°F16.2°C 34.6°F1.4°C 37% 4.6 mph E7.4 kmh E 6.9 mph11.1 kmh 29.93 in1013.5 mb - 0.00 in0.0 mm 0.00 in0.0 mm
03:30 PM 61.1°F16.2°C 34.6°F1.4°C 37% 2.3 mph E3.7 kmh E 5.8 mph9.3 kmh 29.93 in1013.5 mb - 0.00 in0.0 mm 0.00 in0.0 mm
03:40 PM 60.9°F16.1°C 34.4°F1.3°C 37% 3.5 mph E5.6 kmh E 4.6 mph7.4 kmh 29.93 in1013.5 mb - 0.00 in0.0 mm 0.00 in0.0 mm
03:50 PM 60.7°F15.9°C 34.9°F1.6°C 38% 3.5 mph E5.6 kmh E 5.8 mph9.3 kmh 29.92 in1013.2 mb - 0.00 in0.0 mm 0.00 in0.0 mm
04:10 PM 60.7°F15.9°C 34.9°F1.6°C 38% 3.5 mph E5.6 kmh E 3.5 mph5.6 kmh 29.91 in1012.9 mb - 0.00 in0.0 mm 0.00 in0.0 mm
04:20 PM 60.7°F15.9°C 34.9°F1.6°C 38% 1.2 mph ESE1.9 kmh ESE 9.2 mph14.8 kmh 29.90 in1012.5 mb - 0.00 in0.0 mm 0.00 in0.0 mm
04:30 PM 60.2°F15.7°C 33.8°F1.0°C 37% 4.6 mph E7.4 kmh E 8.1 mph13.0 kmh 29.90 in1012.5 mb - 0.00 in0.0 mm 0.00 in0.0 mm
04:40 PM 59.7°F15.4°C 33.4°F0.8°C 37% 3.5 mph E5.6 kmh E 11.5 mph18.5 kmh 29.90 in1012.5 mb - 0.00 in0.0 mm 0.00 in0.0 mm
04:50 PM 59.5°F15.3°C 32.5°F0.3°C 36% 4.6 mph E7.4 kmh E 11.5 mph18.5 kmh 29.89 in1012.2 mb - 0.00 in0.0 mm 0.00 in0.0 mm
05:00 PM 59.5°F15.3°C 32.5°F0.3°C 36% 3.5 mph E5.6 kmh E 9.2 mph14.8 kmh 29.88 in1011.9 mb - 0.00 in0.0 mm 0.00 in0.0 mm
05:10 PM 59.3°F15.2°C 32.4°F0.2°C 36% 5.8 mph E9.3 kmh E 10.4 mph16.7 kmh 29.87 in1011.5 mb - 0.00 in0.0 mm 0.00 in0.0 mm
05:20 PM 59.2°F15.1°C 32.9°F0.5°C 37% 4.6 mph E7.4 kmh E 8.1 mph13.0 kmh 29.87 in1011.5 mb - 0.00 in0.0 mm 0.00 in0.0 mm
05:30 PM 58.8°F14.9°C 33.2°F0.7°C 38% 2.3 mph E3.7 kmh E 3.5 mph5.6 kmh 29.86 in1011.2 mb - 0.00 in0.0 mm 0.00 in0.0 mm
05:40 PM 58.3°F14.6°C 34.1°F1.2°C 40% 4.6 mph E7.4 kmh E 6.9 mph11.1 kmh 29.86 in1011.2 mb - 0.00 in0.0 mm 0.00 in0.0 mm
05:50 PM 57.3°F14.1°C 36.2°F2.3°C 45% 5.8 mph E9.3 kmh E 9.2 mph14.8 kmh 29.85 in1010.8 mb - 0.00 in0.0 mm 0.00 in0.0 mm
06:00 PM 56.2°F13.4°C 37.3°F2.9°C 49% 5.8 mph E9.3 kmh E 5.8 mph9.3 kmh 29.84 in1010.5 mb - 0.00 in0.0 mm 0.00 in0.0 mm
06:10 PM 54.8°F12.7°C 39.4°F4.1°C 56% 4.6 mph E7.4 kmh E 5.8 mph9.3 kmh 29.84 in1010.5 mb - 0.01 in0.3 mm 0.01 in0.3 mm
06:20 PM 52.9°F11.6°C 41.4°F5.2°C 65% 2.3 mph ESE3.7 kmh ESE 3.5 mph5.6 kmh 29.84 in1010.5 mb - 0.02 in0.5 mm 0.02 in0.5 mm
06:30 PM 51.7°F10.9°C 42.3°F5.7°C 70% 3.5 mph E5.6 kmh E 4.6 mph7.4 kmh 29.84 in1010.5 mb - 0.03 in0.8 mm 0.03 in0.8 mm
06:40 PM 51.0°F10.6°C 42.3°F5.7°C 72% Calm Calm -- 29.83 in1010.2 mb - 0.03 in0.8 mm 0.03 in0.8 mm
06:50 PM 50.5°F10.3°C 42.5°F5.8°C 74% 2.3 mph E3.7 kmh E 3.5 mph5.6 kmh 29.84 in1010.5 mb - 0.05 in1.3 mm 0.05 in1.3 mm
07:00 PM 50.0°F10.0°C 42.7°F5.9°C 76% 1.2 mph E1.9 kmh E 4.6 mph7.4 kmh 29.83 in1010.2 mb - 0.05 in1.3 mm 0.05 in1.3 mm
07:10 PM 49.6°F9.8°C 42.7°F5.9°C 77% 2.3 mph E3.7 kmh E 3.5 mph5.6 kmh 29.83 in1010.2 mb - 0.05 in1.3 mm 0.06 in1.5 mm
07:20 PM 49.3°F9.6°C 43.1°F6.2°C 79% 1.2 mph E1.9 kmh E -- 29.83 in1010.2 mb - 0.06 in1.5 mm 0.07 in1.8 mm
07:30 PM 49.1°F9.5°C 42.9°F6.1°C 79% 2.3 mph E3.7 kmh E 5.8 mph9.3 kmh 29.83 in1010.2 mb - 0.05 in1.3 mm 0.08 in2.0 mm
07:40 PM 49.0°F9.4°C 43.1°F6.2°C 80% 3.5 mph E5.6 kmh E 4.6 mph7.4 kmh 29.84 in1010.5 mb - 0.06 in1.5 mm 0.09 in2.3 mm
07:50 PM 48.9°F9.4°C 43.3°F6.3°C 81% 2.3 mph E3.7 kmh E 3.5 mph5.6 kmh 29.84 in1010.5 mb - 0.05 in1.3 mm 0.10 in2.5 mm
08:00 PM 48.8°F9.3°C 43.5°F6.4°C 82% 1.2 mph E1.9 kmh E 1.2 mph1.9 kmh 29.84 in1010.5 mb - 0.06 in1.5 mm 0.11 in2.8 mm
08:10 PM 48.6°F9.2°C 43.4°F6.3°C 82% 3.5 mph ESE5.6 kmh ESE 4.6 mph7.4 kmh 29.84 in1010.5 mb - 0.08 in2.0 mm 0.14 in3.6 mm
08:20 PM 48.4°F9.1°C 43.5°F6.4°C 83% 2.3 mph E3.7 kmh E 3.5 mph5.6 kmh 29.84 in1010.5 mb - 0.09 in2.3 mm 0.16 in4.1 mm
08:30 PM 48.0°F8.9°C 43.4°F6.3°C 84% 2.3 mph E3.7 kmh E 3.5 mph5.6 kmh 29.83 in1010.2 mb - 0.11 in2.8 mm 0.19 in4.8 mm
08:40 PM 47.7°F8.7°C 43.1°F6.2°C 84% 5.8 mph E9.3 kmh E 10.4 mph16.7 kmh 29.83 in1010.2 mb - 0.13 in3.3 mm 0.22 in5.6 mm
08:50 PM 47.3°F8.5°C 43.0°F6.1°C 85% 4.6 mph E7.4 kmh E 10.4 mph16.7 kmh 29.82 in1009.8 mb - 0.15 in3.8 mm 0.25 in6.4 mm
09:00 PM 47.0°F8.3°C 42.7°F5.9°C 85% 2.3 mph E3.7 kmh E 8.1 mph13.0 kmh 29.83 in1010.2 mb - 0.16 in4.1 mm 0.27 in6.9 mm
09:10 PM 46.7°F8.2°C 42.4°F5.8°C 85% 3.5 mph E5.6 kmh E 6.9 mph11.1 kmh 29.83 in1010.2 mb - 0.17 in4.3 mm 0.31 in7.9 mm
09:20 PM 46.4°F8.0°C 42.5°F5.8°C 86% 4.6 mph E7.4 kmh E 6.9 mph11.1 kmh 29.82 in1009.8 mb - 0.18 in4.6 mm 0.34 in8.6 mm
09:30 PM 46.3°F7.9°C 42.3°F5.7°C 86% 3.5 mph E5.6 kmh E 5.8 mph9.3 kmh 29.82 in1009.8 mb - 0.19 in4.8 mm 0.38 in9.7 mm
09:40 PM 46.1°F7.8°C 42.1°F5.6°C 86% 3.5 mph E5.6 kmh E 5.8 mph9.3 kmh 29.81 in1009.5 mb - 0.21 in5.3 mm 0.42 in10.7 mm
09:50 PM 46.0°F7.8°C 42.0°F5.6°C 86% 3.5 mph E5.6 kmh E 5.8 mph9.3 kmh 29.78 in1008.5 mb - 0.21 in5.3 mm 0.45 in11.4 mm
10:00 PM 46.0°F7.8°C 42.3°F5.7°C 87% 4.6 mph E7.4 kmh E 8.1 mph13.0 kmh 29.77 in1008.1 mb - 0.20 in5.1 mm 0.47 in11.9 mm
10:10 PM 46.0°F7.8°C 42.3°F5.7°C 87% 4.6 mph ENE7.4 kmh ENE 8.1 mph13.0 kmh 29.74 in1007.1 mb - 0.18 in4.6 mm 0.48 in12.2 mm
10:20 PM 46.0°F7.8°C 42.3°F5.7°C 87% 4.6 mph ENE7.4 kmh ENE 11.5 mph18.5 kmh 29.72 in1006.4 mb - 0.15 in3.8 mm 0.49 in12.4 mm
10:30 PM 45.9°F7.7°C 42.2°F5.7°C 87% 3.5 mph E5.6 kmh E 5.8 mph9.3 kmh 29.71 in1006.1 mb - 0.12 in3.0 mm 0.50 in12.7 mm
10:40 PM 45.9°F7.7°C 42.2°F5.7°C 87% 4.6 mph ENE7.4 kmh ENE 9.2 mph14.8 kmh 29.71 in1006.1 mb - 0.10 in2.5 mm 0.51 in13.0 mm
10:50 PM 46.0°F7.8°C 42.3°F5.7°C 87% 3.5 mph ENE5.6 kmh ENE 5.8 mph9.3 kmh 29.71 in1006.1 mb - 0.07 in1.8 mm 0.52 in13.2 mm
11:00 PM 46.0°F7.8°C 42.3°F5.7°C 87% 2.3 mph ENE3.7 kmh ENE 6.9 mph11.1 kmh 29.72 in1006.4 mb - 0.05 in1.3 mm 0.52 in13.2 mm
11:10 PM 46.1°F7.8°C 42.4°F5.8°C 87% 3.5 mph E5.6 kmh E 6.9 mph11.1 kmh 29.71 in1006.1 mb - 0.05 in1.3 mm 0.53 in13.5 mm
11:20 PM 46.3°F7.9°C 42.9°F6.1°C 88% 3.5 mph E5.6 kmh E 4.6 mph7.4 kmh 29.71 in1006.1 mb - 0.04 in1.0 mm 0.53 in13.5 mm
11:30 PM 46.4°F8.0°C 42.8°F6.0°C 87% 2.3 mph E3.7 kmh E 12.7 mph20.4 kmh 29.72 in1006.4 mb - 0.03 in0.8 mm 0.53 in13.5 mm
11:40 PM 46.7°F8.2°C 43.0°F6.1°C 87% Calm Calm -- 29.72 in1006.4 mb - 0.02 in0.5 mm 0.53 in13.5 mm
11:50 PM 46.9°F8.3°C 42.9°F6.1°C 86% 3.5 mph E5.6 kmh E 5.8 mph9.3 kmh 29.72 in1006.4 mb - 0.01 in0.3 mm 0.53 in13.5 mm